Time;durP1;ratioP1;P1;durP2;ratioP2;P2;SDS_P1;SDS_P2;PMS_P1;PMS_P2;Temp;Humidity;BMP_temperature;BMP_pressure;BME280_temperature;BME280_humidity;BME280_pressure;Samples;Min_cycle;Max_cycle;Signal;HPM_P1;HPM_P2
2023/09/04 00:02:23;;;;;;;5.88;5.35;;;19.50;99.90;;;;;;5125728;28;20487;-73
2023/09/04 00:04:55;;;;;;;6.85;5.53;;;19.30;99.90;;;;;;5125642;28;20357;-73
2023/09/04 00:07:26;;;;;;;8.93;5.88;;;19.50;99.90;;;;;;5125466;28;20050;-74
2023/09/04 00:10:03;;;;;;;6.07;5.50;;;19.60;99.90;;;;;;5125419;28;20079;-72
2023/09/04 00:12:41;;;;;;;5.90;5.38;;;19.50;99.90;;;;;;5125558;28;20456;-72
2023/09/04 00:15:12;;;;;;;7.00;6.45;;;19.30;99.90;;;;;;5124845;28;20070;-73
2023/09/04 00:17:43;;;;;;;6.75;6.07;;;19.30;99.90;;;;;;5124033;28;20376;-73
2023/09/04 00:20:14;;;;;;;7.60;6.72;;;19.10;99.90;;;;;;5124044;28;20054;-73
2023/09/04 00:22:44;;;;;;;6.53;5.93;;;19.30;99.90;;;;;;5124133;28;20363;-73
2023/09/04 00:25:16;;;;;;;7.82;7.15;;;19.30;99.90;;;;;;5124390;28;20375;-74
2023/09/04 00:27:47;;;;;;;7.05;6.50;;;19.30;99.90;;;;;;5124328;28;20030;-74
2023/09/04 00:30:18;;;;;;;7.32;6.60;;;19.30;99.90;;;;;;5124266;28;20372;-73
2023/09/04 00:32:48;;;;;;;7.25;6.65;;;19.40;99.90;;;;;;5125349;28;20507;-73
2023/09/04 00:35:20;;;;;;;7.38;6.72;;;19.30;99.90;;;;;;5125211;28;20050;-73
2023/09/04 00:37:51;;;;;;;7.85;7.05;;;19.40;99.90;;;;;;5125085;28;20110;-74
2023/09/04 00:40:22;;;;;;;7.60;6.78;;;19.40;99.90;;;;;;5125238;28;20129;-73
2023/09/04 00:42:52;;;;;;;8.07;7.38;;;19.20;99.90;;;;;;5125331;28;20461;-73
2023/09/04 00:45:23;;;;;;;7.90;7.07;;;19.20;99.90;;;;;;5125381;28;20027;-74
2023/09/04 00:47:54;;;;;;;7.93;6.40;;;19.40;99.90;;;;;;5125354;28;20019;-73
2023/09/04 00:50:25;;;;;;;7.07;6.47;;;19.30;99.90;;;;;;5128217;28;20028;-74
2023/09/04 00:53:02;;;;;;;7.75;7.13;;;19.20;99.90;;;;;;5129230;28;20069;-73
2023/09/04 00:55:33;;;;;;;7.57;6.88;;;19.30;99.90;;;;;;5129211;28;20032;-74
2023/09/04 00:58:04;;;;;;;8.07;7.32;;;19.50;99.90;;;;;;5129157;28;20027;-73
2023/09/04 01:00:35;;;;;;;7.57;6.97;;;19.40;99.90;;;;;;5127827;29;20538;-73
2023/09/04 01:03:07;;;;;;;8.50;7.70;;;19.50;99.90;;;;;;5128913;28;20174;-74
2023/09/04 01:05:38;;;;;;;7.03;6.40;;;19.50;99.90;;;;;;5129063;28;20019;-73
2023/09/04 01:08:09;;;;;;;6.40;5.88;;;19.50;99.90;;;;;;5128372;28;20383;-74
2023/09/04 01:11:04;;;;;;;7.07;6.57;;;19.60;99.90;;;;;;5127999;28;20357;-73
2023/09/04 01:13:46;;;;;;;6.88;6.28;;;19.30;99.90;;;;;;5127516;29;20106;-73
2023/09/04 01:16:19;;;;;;;7.38;6.78;;;19.30;99.90;;;;;;5127448;28;20546;-73
2023/09/04 01:18:51;;;;;;;7.35;6.75;;;19.20;99.90;;;;;;5127185;28;20375;-74
2023/09/04 01:21:21;;;;;;;7.45;6.78;;;19.30;99.90;;;;;;5127225;28;20020;-74
2023/09/04 01:23:52;;;;;;;7.70;7.00;;;19.30;99.90;;;;;;5127609;28;20368;-73
2023/09/04 01:26:34;;;;;;;6.32;5.82;;;19.30;99.90;;;;;;5128302;28;20020;-74
2023/09/04 01:29:28;;;;;;;9.48;6.72;;;19.30;99.90;;;;;;5128437;28;20094;-74
2023/09/04 01:32:20;;;;;;;6.80;6.30;;;19.00;99.90;;;;;;5128498;28;20059;-73
2023/09/04 01:34:53;;;;;;;7.10;6.40;;;19.10;99.90;;;;;;5128436;28;20108;-73
2023/09/04 01:37:24;;;;;;;7.25;6.55;;;18.90;99.90;;;;;;5128343;29;20079;-72
2023/09/04 01:39:56;;;;;;;8.15;7.45;;;19.00;99.90;;;;;;5127977;28;20130;-73
2023/09/04 01:42:26;;;;;;;7.38;6.55;;;19.00;99.90;;;;;;5128290;28;20364;-73
2023/09/04 01:44:58;;;;;;;7.40;6.53;;;19.10;99.90;;;;;;5127926;28;20034;-73
2023/09/04 01:47:30;;;;;;;6.90;6.05;;;19.10;99.90;;;;;;5128039;28;20027;-73
2023/09/04 01:50:01;;;;;;;6.93;6.22;;;19.20;99.90;;;;;;5127985;28;20043;-74
2023/09/04 01:52:32;;;;;;;6.50;5.90;;;19.20;99.90;;;;;;5127938;28;20490;-74
2023/09/04 01:55:03;;;;;;;7.35;5.50;;;19.30;99.90;;;;;;5127909;28;20023;-74
2023/09/04 01:57:34;;;;;;;6.97;6.30;;;19.10;99.90;;;;;;5127903;28;20023;-73
2023/09/04 02:00:06;;;;;;;6.07;5.50;;;19.20;99.90;;;;;;5127319;28;20042;-73
2023/09/04 02:02:36;;;;;;;6.50;5.88;;;19.20;99.90;;;;;;5127360;28;20448;-73
2023/09/04 02:05:07;;;;;;;6.32;5.78;;;19.10;99.90;;;;;;5127076;28;20023;-74
2023/09/04 02:07:38;;;;;;;6.68;6.03;;;19.20;99.90;;;;;;5127189;28;20025;-73
2023/09/04 02:10:09;;;;;;;6.65;5.97;;;19.10;99.90;;;;;;5126805;28;20439;-73
2023/09/04 02:12:40;;;;;;;7.45;6.63;;;19.00;99.90;;;;;;5127649;28;20034;-72
2023/09/04 02:15:11;;;;;;;7.05;6.45;;;19.20;99.90;;;;;;5127639;28;20019;-73
2023/09/04 02:17:42;;;;;;;7.30;6.53;;;19.10;99.90;;;;;;5127584;28;20065;-73
2023/09/04 02:20:13;;;;;;;7.10;6.45;;;19.00;99.90;;;;;;5127532;28;20027;-73
2023/09/04 02:22:44;;;;;;;5.82;5.32;;;19.00;99.90;;;;;;5127477;28;20019;-73
2023/09/04 02:25:15;;;;;;;6.30;5.65;;;19.10;99.90;;;;;;5127471;28;20020;-73
2023/09/04 02:27:46;;;;;;;7.00;6.00;;;19.00;99.90;;;;;;5127327;28;20376;-73
2023/09/04 02:30:16;;;;;;;6.47;5.88;;;19.00;99.90;;;;;;5127263;28;20377;-73
2023/09/04 02:32:47;;;;;;;7.63;6.88;;;19.00;99.90;;;;;;5127316;28;20333;-73
2023/09/04 02:35:18;;;;;;;8.52;6.70;;;18.90;99.90;;;;;;5127228;28;20031;-73
2023/09/04 02:37:49;;;;;;;9.38;6.20;;;19.00;99.90;;;;;;5126979;28;20123;-74
2023/09/04 02:40:20;;;;;;;6.65;6.05;;;19.20;99.90;;;;;;5127066;28;20054;-74
2023/09/04 02:42:50;;;;;;;7.60;6.18;;;19.10;99.90;;;;;;5126951;28;20066;-73
2023/09/04 02:45:21;;;;;;;6.93;6.32;;;19.00;99.90;;;;;;5126762;28;20042;-73
2023/09/04 02:47:52;;;;;;;8.25;6.22;;;19.00;99.90;;;;;;5126859;28;20023;-73
2023/09/04 02:50:23;;;;;;;6.68;6.03;;;19.20;99.90;;;;;;5126914;28;20399;-73
2023/09/04 02:52:54;;;;;;;6.65;6.05;;;19.20;99.90;;;;;;5126958;28;20059;-74
2023/09/04 02:55:25;;;;;;;6.82;6.10;;;19.00;99.90;;;;;;5127000;28;20070;-74
2023/09/04 02:57:55;;;;;;;6.50;5.90;;;19.20;99.90;;;;;;5126825;28;20031;-74
2023/09/04 03:00:26;;;;;;;7.25;6.55;;;19.20;99.90;;;;;;5126706;28;20027;-73
2023/09/04 03:02:57;;;;;;;6.70;6.10;;;19.10;99.90;;;;;;5141214;28;20471;-73
2023/09/04 03:05:28;;;;;;;6.30;5.70;;;19.10;99.90;;;;;;5125879;28;20102;-73
2023/09/04 03:07:59;;;;;;;6.82;6.22;;;19.00;99.90;;;;;;5125048;28;20115;-73
2023/09/04 03:10:33;;;;;;;7.35;6.65;;;18.90;99.90;;;;;;5139864;28;20035;-74
2023/09/04 03:13:04;;;;;;;6.80;6.20;;;18.90;99.90;;;;;;5124848;28;20520;-74
2023/09/04 03:15:34;;;;;;;6.20;5.60;;;19.00;99.90;;;;;;5125718;28;20106;-74
2023/09/04 03:18:06;;;;;;;7.82;6.72;;;19.00;99.90;;;;;;5126722;28;20078;-73
2023/09/04 03:20:36;;;;;;;6.22;5.63;;;18.90;99.90;;;;;;5124372;28;20117;-73
2023/09/04 03:23:08;;;;;;;7.22;6.30;;;18.80;99.90;;;;;;5126406;28;20102;-74
2023/09/04 03:25:39;;;;;;;6.70;5.22;;;19.00;99.90;;;;;;5126413;28;20078;-73
2023/09/04 03:28:09;;;;;;;6.90;6.22;;;18.80;99.90;;;;;;5126449;28;20027;-73
2023/09/04 03:30:41;;;;;;;7.03;5.90;;;18.90;99.90;;;;;;5126167;28;20046;-74
2023/09/04 03:33:12;;;;;;;6.63;5.97;;;19.00;99.90;;;;;;5122899;28;20027;-73
2023/09/04 03:35:42;;;;;;;6.45;5.85;;;19.00;99.90;;;;;;5126196;28;20494;-73
2023/09/04 03:38:13;;;;;;;7.45;5.85;;;19.00;99.90;;;;;;5125709;28;20399;-74
2023/09/04 03:40:44;;;;;;;6.75;6.15;;;18.80;99.90;;;;;;5128228;28;20015;-73
2023/09/04 03:43:17;;;;;;;5.93;5.32;;;18.90;99.90;;;;;;5124996;28;20015;-73
2023/09/04 03:45:48;;;;;;;7.70;5.75;;;18.90;99.90;;;;;;5125011;28;20479;-74
2023/09/04 03:48:19;;;;;;;6.70;6.10;;;19.00;99.90;;;;;;5125218;28;20031;-73
2023/09/04 03:50:50;;;;;;;8.27;5.85;;;19.00;99.90;;;;;;5124546;29;20090;-73
2023/09/04 03:53:21;;;;;;;6.38;5.78;;;18.90;99.90;;;;;;5125975;28;20065;-73
2023/09/04 03:55:51;;;;;;;6.10;5.55;;;18.90;99.90;;;;;;5125866;28;20031;-74
2023/09/04 03:58:22;;;;;;;6.82;6.15;;;19.00;99.90;;;;;;5125378;28;20384;-74
2023/09/04 04:01:00;;;;;;;6.97;6.00;;;19.00;99.90;;;;;;5125687;28;20031;-72
2023/09/04 04:03:32;;;;;;;7.50;5.65;;;19.00;99.90;;;;;;5125688;28;20154;-75
2023/09/04 04:06:13;;;;;;;8.43;5.63;;;19.10;99.90;;;;;;5124382;29;20523;-73
2023/09/04 04:08:47;;;;;;;6.85;6.13;;;19.10;99.90;;;;;;5125399;28;20062;-73
2023/09/04 04:11:20;;;;;;;7.45;6.50;;;19.10;99.90;;;;;;5125448;28;20057;-74
2023/09/04 04:13:51;;;;;;;6.78;6.18;;;18.90;99.90;;;;;;5125569;28;20030;-73
2023/09/04 04:16:22;;;;;;;7.22;6.53;;;19.10;99.90;;;;;;5125589;28;20031;-73
2023/09/04 04:18:53;;;;;;;6.28;5.75;;;19.10;99.90;;;;;;5125428;28;20027;-73
2023/09/04 04:21:24;;;;;;;6.40;5.78;;;19.20;99.90;;;;;;5125513;28;20086;-73
2023/09/04 04:23:54;;;;;;;8.63;6.32;;;19.20;99.90;;;;;;5124725;28;20091;-74
2023/09/04 04:26:25;;;;;;;7.30;6.60;;;19.40;99.90;;;;;;5125372;28;20063;-74
2023/09/04 04:28:56;;;;;;;6.88;6.28;;;19.70;99.90;;;;;;5125382;28;20043;-74
2023/09/04 04:31:27;;;;;;;7.20;6.57;;;19.70;99.90;;;;;;5125329;28;20036;-74
2023/09/04 04:33:57;;;;;;;7.95;7.10;;;19.80;99.90;;;;;;5125275;28;20031;-73
2023/09/04 04:36:28;;;;;;;8.65;6.50;;;20.00;99.90;;;;;;5125302;28;20027;-73
2023/09/04 04:38:59;;;;;;;9.35;6.65;;;20.10;99.90;;;;;;5123734;28;20496;-73
2023/09/04 04:41:32;;;;;;;8.00;7.10;;;20.40;99.90;;;;;;5125335;28;20597;-73
2023/09/04 04:44:02;;;;;;;9.35;7.28;;;20.70;99.90;;;;;;5123992;29;20114;-74
2023/09/04 04:46:33;;;;;;;11.30;7.35;;;20.70;99.90;;;;;;5125179;28;20038;-74
2023/09/04 04:49:04;;;;;;;10.32;7.05;;;21.00;99.90;;;;;;5124077;28;20043;-73
2023/09/04 04:51:35;;;;;;;7.60;6.78;;;21.00;99.90;;;;;;5125149;28;20102;-73
2023/09/04 04:54:05;;;;;;;9.95;7.35;;;21.20;99.90;;;;;;5124742;28;20058;-74
2023/09/04 04:56:36;;;;;;;8.18;7.07;;;21.30;99.90;;;;;;5122836;28;20077;-74
2023/09/04 04:59:08;;;;;;;8.27;6.82;;;21.60;99.90;;;;;;5124109;28;20023;-74
2023/09/04 05:01:38;;;;;;;9.75;6.63;;;21.80;99.90;;;;;;5124022;28;20078;-74
2023/09/04 05:04:09;;;;;;;9.48;5.90;;;22.10;99.90;;;;;;5124078;28;20039;-74
2023/09/04 05:09:21;;;;;;;5.50;5.00;;;22.40;99.90;;;;;;5232384;23;20062;-74
2023/09/04 05:11:52;;;;;;;7.32;6.22;;;22.70;99.90;;;;;;5122733;29;20122;-75
2023/09/04 05:14:22;;;;;;;7.55;5.88;;;22.80;99.90;;;;;;5123672;29;20110;-75
2023/09/04 05:16:53;;;;;;;7.93;7.13;;;22.90;99.90;;;;;;5124830;29;20031;-75
2023/09/04 05:19:24;;;;;;;7.45;6.95;;;23.10;99.90;;;;;;5124928;28;20027;-74
2023/09/04 05:21:55;;;;;;;8.25;6.82;;;23.20;99.90;;;;;;5124696;28;20122;-75
2023/09/04 05:24:26;;;;;;;6.70;6.10;;;23.40;99.90;;;;;;5124861;28;20035;-75
2023/09/04 05:26:56;;;;;;;6.38;5.72;;;23.50;99.90;;;;;;5122619;29;20062;-74
2023/09/04 05:29:27;;;;;;;6.22;5.70;;;23.60;99.90;;;;;;5122898;29;20043;-74
2023/09/04 05:31:58;;;;;;;6.03;5.00;;;23.70;99.90;;;;;;5123307;28;20024;-75
2023/09/04 05:34:29;;;;;;;6.13;5.53;;;23.80;99.90;;;;;;5123337;28;20026;-75
2023/09/04 05:37:00;;;;;;;6.50;4.88;;;23.90;99.90;;;;;;5126547;28;20031;-75
2023/09/04 05:39:31;;;;;;;5.78;4.90;;;24.10;99.90;;;;;;5126986;28;20110;-75
2023/09/04 05:42:01;;;;;;;7.60;4.55;;;24.20;99.90;;;;;;5126758;28;20471;-75
2023/09/04 05:44:32;;;;;;;4.82;4.43;;;24.30;99.90;;;;;;5127825;28;20019;-75
2023/09/04 05:47:03;;;;;;;9.48;4.50;;;24.30;99.90;;;;;;5127629;28;20142;-75
2023/09/04 05:49:34;;;;;;;6.07;4.30;;;24.40;99.90;;;;;;5127518;28;20043;-75
2023/09/04 05:52:05;;;;;;;5.63;5.18;;;24.60;99.90;;;;;;5127614;28;20074;-75
2023/09/04 05:54:36;;;;;;;5.07;4.57;;;24.60;99.90;;;;;;5127136;28;20027;-75
2023/09/04 05:57:07;;;;;;;5.90;5.30;;;24.70;99.90;;;;;;5127304;28;20030;-75
2023/09/04 05:59:38;;;;;;;4.85;4.40;;;24.80;99.90;;;;;;5127176;28;20035;-74
2023/09/04 06:02:09;;;;;;;6.28;5.85;;;24.90;99.90;;;;;;5124082;29;20016;-75
2023/09/04 06:04:40;;;;;;;6.15;5.75;;;24.90;99.90;;;;;;5126645;28;20072;-75
2023/09/04 06:07:11;;;;;;;6.50;6.00;;;25.00;99.90;;;;;;5126514;28;20387;-75
2023/09/04 06:09:44;;;;;;;5.93;5.40;;;25.00;99.90;;;;;;5126363;28;20459;-75
2023/09/04 06:12:15;;;;;;;7.45;5.13;;;25.00;99.90;;;;;;5126976;28;20078;-74
2023/09/04 06:14:46;;;;;;;7.30;5.45;;;25.30;99.90;;;;;;5126894;28;20391;-73
2023/09/04 06:17:17;;;;;;;4.55;4.22;;;25.20;99.90;;;;;;5126697;28;20031;-73
2023/09/04 06:19:48;;;;;;;6.03;4.50;;;25.40;99.90;;;;;;5127276;28;20039;-73
2023/09/04 06:22:19;;;;;;;5.00;4.60;;;25.40;99.90;;;;;;5126947;28;20023;-73
2023/09/04 06:24:49;;;;;;;4.63;4.32;;;25.40;99.90;;;;;;5125022;28;20459;-73
2023/09/04 06:27:20;;;;;;;5.22;4.72;;;25.40;99.90;;;;;;5125350;28;20022;-74
2023/09/04 06:29:51;;;;;;;4.45;4.15;;;25.50;99.90;;;;;;5125414;28;20047;-73
2023/09/04 06:32:22;;;;;;;5.15;4.75;;;25.40;99.90;;;;;;5125706;28;20460;-73
2023/09/04 06:34:52;;;;;;;6.53;5.97;;;25.60;99.90;;;;;;5125670;28;20106;-73
2023/09/04 06:37:25;;;;;;;6.00;5.43;;;25.70;99.90;;;;;;5125595;28;20101;-73
2023/09/04 06:39:56;;;;;;;6.93;6.22;;;25.80;99.90;;;;;;5126308;28;20518;-73
2023/09/04 06:42:26;;;;;;;9.07;6.65;;;25.80;99.90;;;;;;5125693;29;20502;-72
2023/09/04 06:44:57;;;;;;;7.72;6.88;;;25.90;99.90;;;;;;5126937;28;20034;-72
2023/09/04 06:47:28;;;;;;;6.70;6.07;;;26.00;99.90;;;;;;5126083;28;20020;-73
2023/09/04 06:50:00;;;;;;;6.55;5.95;;;25.80;99.90;;;;;;5126954;28;20549;-73
2023/09/04 06:52:31;;;;;;;7.13;6.43;;;25.90;99.90;;;;;;5127081;28;20029;-73
2023/09/04 06:55:04;;;;;;;7.38;6.30;;;26.00;99.90;;;;;;5126854;28;20027;-73
2023/09/04 06:57:35;;;;;;;7.40;6.80;;;26.10;99.90;;;;;;5126732;28;20035;-73
2023/09/04 07:00:10;;;;;;;6.75;6.22;;;26.00;99.90;;;;;;5126606;28;20019;-74
2023/09/04 07:02:41;;;;;;;6.53;6.03;;;25.80;99.90;;;;;;5126697;28;20027;-73
2023/09/04 07:05:12;;;;;;;6.80;6.10;;;25.90;99.90;;;;;;5125337;28;20023;-73
2023/09/04 07:07:43;;;;;;;5.82;5.35;;;26.10;99.90;;;;;;5126071;28;20055;-74
2023/09/04 07:10:14;;;;;;;7.65;5.78;;;26.40;99.90;;;;;;5126286;28;20428;-73
2023/09/04 07:12:45;;;;;;;6.07;5.47;;;26.40;99.90;;;;;;5125999;28;20376;-73
2023/09/04 07:15:15;;;;;;;7.88;7.18;;;26.60;99.90;;;;;;5125055;28;20078;-73
2023/09/04 07:17:46;;;;;;;7.38;6.40;;;26.30;99.90;;;;;;5124822;28;20019;-73
2023/09/04 07:20:17;;;;;;;7.25;6.25;;;26.00;99.90;;;;;;5119418;28;20063;-75
2023/09/04 07:22:48;;;;;;;8.68;6.43;;;26.00;99.90;;;;;;5105082;29;20047;-74
2023/09/04 07:25:19;;;;;;;7.93;5.90;;;26.40;99.90;;;;;;5104808;29;20036;-73
2023/09/04 07:27:49;;;;;;;7.43;6.78;;;26.30;99.90;;;;;;5104986;29;20119;-74
2023/09/04 07:30:20;;;;;;;7.90;6.03;;;26.40;99.90;;;;;;5106135;29;20114;-74
2023/09/04 07:32:51;;;;;;;9.18;6.78;;;26.20;99.90;;;;;;5116435;28;20031;-74
2023/09/04 07:35:22;;;;;;;6.78;6.28;;;26.20;99.90;;;;;;5124604;29;20035;-73
2023/09/04 07:37:53;;;;;;;7.57;6.97;;;26.40;99.90;;;;;;5125591;28;20035;-74
2023/09/04 07:40:23;;;;;;;7.10;6.50;;;26.30;99.90;;;;;;5125940;28;20095;-74
2023/09/04 07:42:54;;;;;;;6.82;6.30;;;26.20;99.90;;;;;;5125902;28;20118;-74
2023/09/04 07:45:25;;;;;;;7.57;6.97;;;26.30;99.90;;;;;;5125838;28;20066;-74
2023/09/04 07:47:56;;;;;;;8.80;8.10;;;26.40;99.90;;;;;;5125708;28;20047;-74
2023/09/04 07:50:27;;;;;;;8.02;7.25;;;26.50;99.90;;;;;;5125566;28;20114;-74
2023/09/04 07:52:57;;;;;;;9.32;8.48;;;26.70;99.90;;;;;;5133655;28;20035;-74
2023/09/04 07:55:28;;;;;;;9.57;8.27;;;26.60;99.90;;;;;;5125632;28;20033;-74
2023/09/04 07:57:59;;;;;;;9.50;8.52;;;26.50;99.90;;;;;;5125595;28;20559;-74
2023/09/04 08:00:30;;;;;;;8.52;7.55;;;26.40;99.90;;;;;;5125552;28;20019;-72
2023/09/04 08:03:00;;;;;;;8.10;7.25;;;26.30;99.90;;;;;;5122103;28;20727;-72
2023/09/04 08:05:31;;;;;;;9.10;8.27;;;26.30;99.90;;;;;;5124908;28;20423;-72
2023/09/04 08:08:07;;;;;;;7.50;6.75;;;26.40;99.90;;;;;;5124690;28;20106;-72
2023/09/04 08:10:43;;;;;;;7.30;6.75;;;26.30;99.90;;;;;;5122628;29;20563;-72
2023/09/04 08:13:15;;;;;;;7.65;6.88;;;26.40;99.90;;;;;;5124813;28;20023;-72
2023/09/04 08:15:46;;;;;;;10.35;7.10;;;26.40;99.90;;;;;;5124644;28;20027;-73
2023/09/04 08:18:17;;;;;;;8.30;7.55;;;26.60;99.90;;;;;;5124607;28;20098;-73
2023/09/04 08:20:49;;;;;;;9.45;8.45;;;26.50;99.90;;;;;;5124824;28;20460;-73
2023/09/04 08:23:20;;;;;;;8.95;6.35;;;26.20;99.90;;;;;;5124608;28;20023;-73
2023/09/04 08:25:59;;;;;;;10.48;6.35;;;25.90;99.90;;;;;;5123156;29;20470;-72
2023/09/04 08:28:30;;;;;;;7.20;5.70;;;25.80;99.90;;;;;;5118042;28;20031;-72
2023/09/04 08:31:01;;;;;;;8.65;5.15;;;25.70;99.90;;;;;;5124578;28;20097;-73
2023/09/04 08:33:32;;;;;;;11.27;5.20;;;25.70;99.90;;;;;;5123279;29;20023;-72
2023/09/04 08:36:03;;;;;;;9.52;5.78;;;25.60;99.90;;;;;;5124769;28;20030;-73
2023/09/04 08:38:33;;;;;;;9.43;5.78;;;25.60;99.90;;;;;;5124340;28;20042;-73
2023/09/04 08:41:09;;;;;;;6.93;5.85;;;25.40;99.90;;;;;;5123329;29;20028;-74
2023/09/04 08:43:42;;;;;;;7.63;5.70;;;25.30;99.90;;;;;;5124553;28;20376;-74
2023/09/04 08:46:15;;;;;;;7.30;5.43;;;25.30;99.90;;;;;;5124430;28;20015;-73
2023/09/04 08:48:48;;;;;;;6.20;5.22;;;25.40;99.90;;;;;;5124335;28;20043;-75
2023/09/04 08:51:20;;;;;;;7.38;5.28;;;25.50;99.90;;;;;;5124706;28;20027;-74
2023/09/04 08:53:51;;;;;;;7.72;5.82;;;25.30;99.90;;;;;;5123898;28;20050;-72
2023/09/04 08:56:22;;;;;;;9.20;5.65;;;25.10;99.90;;;;;;5124301;28;20086;-73
2023/09/04 08:58:53;;;;;;;7.13;4.43;;;25.00;99.90;;;;;;5124176;28;20019;-74
2023/09/04 09:01:28;;;;;;;6.88;5.20;;;24.80;99.90;;;;;;5124261;29;20383;-73
2023/09/04 09:04:05;;;;;;;10.05;5.20;;;24.90;99.90;;;;;;5121964;29;20456;-73
2023/09/04 09:06:36;;;;;;;11.05;5.63;;;25.00;99.90;;;;;;5104436;29;20044;-73
2023/09/04 09:09:08;;;;;;;9.45;6.50;;;25.10;99.90;;;;;;5123386;29;20040;-73
2023/09/04 09:11:39;;;;;;;8.85;5.65;;;25.50;99.90;;;;;;5126752;29;20042;-74
2023/09/04 09:14:12;;;;;;;7.75;5.57;;;25.70;99.90;;;;;;5128389;28;20083;-74
2023/09/04 09:16:43;;;;;;;14.50;6.68;;;25.50;99.90;;;;;;5128454;28;20094;-73
2023/09/04 09:19:14;;;;;;;7.38;5.60;;;25.40;99.90;;;;;;5128482;28;20110;-74
2023/09/04 09:21:45;;;;;;;10.63;6.18;;;25.40;99.90;;;;;;5128356;28;20154;-74
2023/09/04 09:24:18;;;;;;;13.00;6.15;;;25.30;99.90;;;;;;5128033;28;20122;-72
2023/09/04 09:26:50;;;;;;;7.18;5.82;;;25.30;99.90;;;;;;5128186;28;20369;-73
2023/09/04 09:29:21;;;;;;;6.75;5.82;;;25.50;99.90;;;;;;5128073;28;20035;-73
2023/09/04 09:31:53;;;;;;;9.00;6.32;;;25.90;99.90;;;;;;5127526;28;20031;-74
2023/09/04 09:34:24;;;;;;;9.73;6.60;;;26.20;99.90;;;;;;5127939;28;20055;-73
2023/09/04 09:36:58;;;;;;;8.63;6.78;;;26.40;99.90;;;;;;5127819;28;20059;-74
2023/09/04 09:39:29;;;;;;;9.43;6.63;;;26.40;99.90;;;;;;5128189;28;20038;-74
2023/09/04 09:42:01;;;;;;;13.70;7.05;;;26.50;99.90;;;;;;5128185;28;20155;-74
2023/09/04 09:44:32;;;;;;;7.45;6.53;;;26.60;99.90;;;;;;5127990;28;20038;-74
2023/09/04 09:47:05;;;;;;;9.35;6.30;;;26.60;99.90;;;;;;5127903;28;20035;-74
2023/09/04 09:49:39;;;;;;;12.32;6.50;;;26.50;99.90;;;;;;5127521;28;20032;-73
2023/09/04 09:52:12;;;;;;;8.40;6.00;;;26.30;99.90;;;;;;5124877;29;20015;-73
2023/09/04 09:54:45;;;;;;;7.88;7.20;;;25.90;99.90;;;;;;5127249;28;20062;-75
2023/09/04 09:57:17;;;;;;;9.48;6.13;;;25.90;99.90;;;;;;5127187;28;20035;-74
2023/09/04 09:59:49;;;;;;;8.75;5.65;;;25.50;99.90;;;;;;5127180;28;20023;-73
2023/09/04 10:02:24;;;;;;;11.43;5.55;;;25.40;99.90;;;;;;5126209;28;20586;-74
2023/09/04 10:04:55;;;;;;;9.32;4.82;;;25.30;99.90;;;;;;5124391;28;20035;-74
2023/09/04 10:07:29;;;;;;;7.97;5.63;;;25.40;99.90;;;;;;5125279;28;20039;-74
2023/09/04 10:10:07;;;;;;;8.98;5.82;;;25.30;99.90;;;;;;5126223;28;20043;-73
2023/09/04 10:12:44;;;;;;;10.75;6.60;;;25.20;99.90;;;;;;5125044;28;20019;-73
2023/09/04 10:15:28;;;;;;;8.75;6.15;;;25.00;99.90;;;;;;5125940;28;20483;-74
2023/09/04 10:18:14;;;;;;;8.27;6.85;;;25.00;99.90;;;;;;5125260;29;20415;-74
2023/09/04 10:20:46;;;;;;;11.85;7.53;;;25.10;99.90;;;;;;5122876;28;20061;-75
2023/09/04 10:23:23;;;;;;;10.55;6.63;;;25.10;99.90;;;;;;5125806;28;20027;-74
2023/09/04 10:25:59;;;;;;;7.25;6.00;;;25.10;99.90;;;;;;5126232;29;20066;-73
2023/09/04 10:28:41;;;;;;;10.07;6.28;;;24.90;99.90;;;;;;5127282;28;20023;-73
2023/09/04 10:31:12;;;;;;;9.32;5.50;;;24.90;99.90;;;;;;5127146;28;20101;-75
2023/09/04 10:33:43;;;;;;;6.47;5.85;;;24.80;99.90;;;;;;5127367;28;20038;-74
2023/09/04 10:36:14;;;;;;;6.40;5.60;;;24.80;99.90;;;;;;5127075;28;20066;-74
2023/09/04 10:38:45;;;;;;;7.78;6.22;;;24.80;99.90;;;;;;5127019;28;20067;-74
2023/09/04 10:41:17;;;;;;;6.05;5.47;;;24.70;99.90;;;;;;5125356;29;20495;-74
2023/09/04 10:43:47;;;;;;;6.85;6.13;;;24.80;99.90;;;;;;5126309;28;20035;-75
2023/09/04 10:46:18;;;;;;;6.95;5.78;;;24.80;99.90;;;;;;5125248;28;20449;-75
2023/09/04 10:48:51;;;;;;;7.18;5.55;;;24.70;99.90;;;;;;5126059;28;20030;-73
2023/09/04 10:51:32;;;;;;;7.47;6.72;;;24.70;99.90;;;;;;5124275;28;20070;-73
2023/09/04 10:54:24;;;;;;;6.60;5.78;;;24.70;99.90;;;;;;5123238;29;20024;-75
2023/09/04 10:56:56;;;;;;;8.65;5.03;;;24.80;99.90;;;;;;5125385;28;20341;-75
2023/09/04 10:59:28;;;;;;;12.45;6.13;;;24.70;99.90;;;;;;5124002;28;20034;-75
2023/09/04 11:02:26;;;;;;;9.38;6.47;;;24.60;99.90;;;;;;5125242;28;20059;-74
2023/09/04 11:04:59;;;;;;;7.10;5.65;;;24.60;99.90;;;;;;5125332;28;20023;-74
2023/09/04 11:07:32;;;;;;;9.30;6.50;;;24.40;99.90;;;;;;5125803;28;20076;-74
2023/09/04 11:10:28;;;;;;;12.88;7.32;;;24.40;99.90;;;;;;5125872;28;20039;-74
2023/09/04 11:12:59;;;;;;;11.43;7.40;;;24.60;99.90;;;;;;5126031;29;20535;-74
2023/09/04 11:15:33;;;;;;;9.32;6.35;;;24.60;99.90;;;;;;5126078;28;20019;-75
2023/09/04 11:18:13;;;;;;;7.57;6.95;;;24.60;99.90;;;;;;5126173;28;20023;-74
2023/09/04 11:20:47;;;;;;;9.68;7.28;;;24.50;99.90;;;;;;5126269;28;20019;-75
2023/09/04 11:23:18;;;;;;;10.80;6.55;;;24.60;99.90;;;;;;5124848;28;20424;-74
2023/09/04 11:25:52;;;;;;;9.52;6.45;;;24.50;99.90;;;;;;5126251;28;20027;-74
2023/09/04 11:28:26;;;;;;;7.75;5.90;;;24.60;99.90;;;;;;5126029;28;20081;-74
2023/09/04 11:30:58;;;;;;;10.38;6.70;;;24.70;99.90;;;;;;5125935;28;20043;-75
2023/09/04 11:33:33;;;;;;;9.73;6.25;;;24.60;99.90;;;;;;5125222;28;20388;-74
2023/09/04 11:36:06;;;;;;;11.85;6.13;;;24.60;99.90;;;;;;5125280;28;20082;-73
2023/09/04 11:38:37;;;;;;;8.88;6.40;;;24.50;99.90;;;;;;5125703;28;20082;-75
2023/09/04 11:41:15;;;;;;;8.68;6.60;;;24.60;99.90;;;;;;5125806;28;20015;-75
2023/09/04 11:43:46;;;;;;;8.27;6.07;;;24.60;99.90;;;;;;5125209;28;20039;-74
2023/09/04 11:46:17;;;;;;;7.68;6.30;;;24.60;99.90;;;;;;5125338;28;20094;-75
2023/09/04 11:48:48;;;;;;;7.20;6.13;;;24.60;99.90;;;;;;5124807;28;20154;-75
2023/09/04 11:51:19;;;;;;;7.82;6.32;;;24.50;99.90;;;;;;5123135;28;20039;-75
2023/09/04 11:53:50;;;;;;;7.38;5.00;;;24.60;99.90;;;;;;5124194;28;20478;-75
2023/09/04 11:56:21;;;;;;;8.13;6.22;;;24.60;99.90;;;;;;5124187;28;20031;-75
2023/09/04 11:58:53;;;;;;;8.05;5.70;;;24.60;99.90;;;;;;5124191;28;20031;-75
2023/09/04 12:01:24;;;;;;;8.82;5.82;;;24.60;99.90;;;;;;5124930;28;20484;-75
2023/09/04 12:03:55;;;;;;;7.68;6.13;;;24.60;99.90;;;;;;5125490;28;20035;-75
2023/09/04 12:06:27;;;;;;;7.13;5.47;;;24.70;99.90;;;;;;5125271;28;20569;-75
2023/09/04 12:08:58;;;;;;;7.30;5.72;;;24.70;99.90;;;;;;5125035;28;20062;-74
2023/09/04 12:11:30;;;;;;;9.85;5.65;;;24.70;99.90;;;;;;5124198;29;20390;-74
2023/09/04 12:14:09;;;;;;;8.40;5.85;;;24.80;99.90;;;;;;5125387;28;20132;-73
2023/09/04 12:16:43;;;;;;;6.43;5.65;;;24.80;99.90;;;;;;5125121;28;20046;-75
2023/09/04 12:19:15;;;;;;;10.23;6.40;;;24.80;99.90;;;;;;5125205;28;20070;-75
2023/09/04 12:21:46;;;;;;;11.20;4.85;;;24.90;99.90;;;;;;5125295;28;20035;-73
2023/09/04 12:24:18;;;;;;;9.60;6.10;;;25.10;99.90;;;;;;5125262;28;20031;-75
2023/09/04 12:26:50;;;;;;;8.43;5.53;;;25.60;99.90;;;;;;5123892;28;20471;-75
2023/09/04 12:29:21;;;;;;;12.80;4.97;;;26.00;99.90;;;;;;5125093;28;20035;-74
2023/09/04 12:31:52;;;;;;;12.63;6.68;;;26.30;99.90;;;;;;5124048;29;20038;-75
2023/09/04 12:34:26;;;;;;;7.65;6.70;;;26.40;99.90;;;;;;5125143;28;20027;-75
2023/09/04 12:36:56;;;;;;;9.80;7.35;;;26.70;99.90;;;;;;5125024;28;20110;-75
2023/09/04 12:39:27;;;;;;;7.93;7.43;;;26.80;99.90;;;;;;5124418;28;20155;-73
2023/09/04 12:42:03;;;;;;;8.25;7.55;;;26.90;99.90;;;;;;5124995;28;20024;-74
2023/09/04 12:44:34;;;;;;;7.88;7.10;;;27.10;99.90;;;;;;5124952;28;20493;-75
2023/09/04 12:47:04;;;;;;;7.80;7.10;;;27.40;99.90;;;;;;5128921;28;20035;-75
2023/09/04 12:49:35;;;;;;;8.48;7.60;;;27.20;99.90;;;;;;5126100;28;21533;-74
2023/09/04 12:52:06;;;;;;;8.20;7.40;;;27.40;99.90;;;;;;5128482;28;20034;-74
2023/09/04 12:54:37;;;;;;;9.32;8.32;;;27.60;99.90;;;;;;5128412;28;20078;-75
2023/09/04 12:57:07;;;;;;;8.90;8.02;;;27.40;99.90;;;;;;5128818;28;20494;-74
2023/09/04 12:59:38;;;;;;;9.77;8.48;;;27.60;99.90;;;;;;5128865;28;20030;-75
2023/09/04 13:02:09;;;;;;;8.40;7.53;;;27.70;99.90;;;;;;5127978;29;20019;-75
2023/09/04 13:04:40;;;;;;;9.95;7.45;;;27.70;99.90;;;;;;5129120;28;20023;-75
2023/09/04 13:07:10;;;;;;;9.20;6.55;;;27.60;99.90;;;;;;5127467;28;20126;-75
2023/09/04 13:09:41;;;;;;;7.63;6.97;;;27.60;99.90;;;;;;5126719;28;20073;-73
2023/09/04 13:12:12;;;;;;;8.75;7.72;;;27.90;99.90;;;;;;5128742;28;20035;-76
2023/09/04 13:14:45;;;;;;;7.35;6.68;;;28.00;99.90;;;;;;5128815;28;20110;-73